Time;durP1;ratioP1;P1;durP2;ratioP2;P2;SDS_P1;SDS_P2;PMS_P1;PMS_P2;Temp;Humidity;BMP_temperature;BMP_pressure;BME280_temperature;BME280_humidity;BME280_pressure;Samples;Min_cycle;Max_cycle;Signal;HPM_P1;HPM_P2
2022/04/06 00:02:27;;;;;;;18.95;6.88;;;;;;;10.10;100.00;100401.16;5300210;28;20132;-70
2022/04/06 00:04:59;;;;;;;21.63;8.20;;;;;;;10.11;100.00;100394.13;5297824;28;20866;-69
2022/04/06 00:07:30;;;;;;;18.08;7.00;;;;;;;10.11;100.00;100402.81;5301244;28;20661;-69
2022/04/06 00:10:03;;;;;;;17.35;7.55;;;;;;;10.08;100.00;100391.81;5298372;28;20023;-70
2022/04/06 00:12:35;;;;;;;;;;;;;;;10.47;100.00;100385.59;5302508;28;20496;-70
2022/04/06 00:15:09;;;;;;;19.42;7.25;;;;;;;10.10;100.00;100384.63;5299301;28;19927;-70
2022/04/06 00:17:41;;;;;;;22.42;7.57;;;;;;;10.07;100.00;100387.50;5300047;28;20035;-69
2022/04/06 00:20:14;;;;;;;21.40;6.57;;;;;;;10.07;100.00;100379.66;5297652;28;20040;-70
2022/04/06 00:22:45;;;;;;;18.38;6.82;;;;;;;10.06;100.00;100385.88;5300240;28;20169;-70
2022/04/06 00:25:17;;;;;;;17.85;6.18;;;;;;;10.05;100.00;100381.59;5299598;28;20479;-70
2022/04/06 00:27:48;;;;;;;16.70;6.57;;;;;;;10.05;100.00;100387.66;5299685;28;20016;-69
2022/04/06 00:30:19;;;;;;;21.85;6.38;;;;;;;10.02;100.00;100384.50;5298030;28;20030;-69
2022/04/06 00:32:51;;;;;;;17.13;6.80;;;;;;;10.00;100.00;100376.78;5298325;28;20032;-69
2022/04/06 00:35:28;;;;;;;18.55;6.20;;;;;;;10.01;100.00;100380.22;5300311;28;20486;-70
2022/04/06 00:38:02;;;;;;;19.77;6.72;;;;;;;10.00;100.00;100382.03;5300154;28;20028;-69
2022/04/06 00:40:35;;;;;;;19.02;5.93;;;;;;;10.00;100.00;100382.03;5298123;28;20503;-69
2022/04/06 00:43:08;;;;;;;16.67;6.72;;;;;;;10.01;100.00;100377.63;5297953;28;20076;-70
2022/04/06 00:45:41;;;;;;;16.33;5.47;;;;;;;9.97;100.00;100374.44;5301118;28;20698;-69
2022/04/06 00:48:12;;;;;;;17.65;6.50;;;;;;;9.95;100.00;100374.56;5297577;28;20027;-69
2022/04/06 00:50:44;;;;;;;21.20;5.95;;;;;;;9.95;100.00;100365.91;5300842;28;20031;-69
2022/04/06 00:53:16;;;;;;;15.80;5.10;;;;;;;9.97;100.00;100366.59;5297683;28;20075;-70
2022/04/06 00:55:48;;;;;;;19.20;6.15;;;;;;;9.97;100.00;100377.06;5300020;28;20480;-70
2022/04/06 00:58:19;;;;;;;16.43;5.70;;;;;;;9.95;100.00;100364.09;5297829;28;20063;-70
2022/04/06 01:00:51;;;;;;;16.63;5.80;;;;;;;9.94;100.00;100372.91;5298450;28;20588;-70
2022/04/06 01:03:23;;;;;;;20.58;6.68;;;;;;;9.95;100.00;100366.72;5299153;28;20032;-69
2022/04/06 01:05:55;;;;;;;19.40;5.93;;;;;;;9.95;100.00;100368.50;5302032;28;20150;-69
2022/04/06 01:08:27;;;;;;;17.42;5.55;;;;;;;9.92;100.00;100356.53;5299922;28;20029;-70
2022/04/06 01:10:58;;;;;;;16.92;4.90;;;;;;;9.87;100.00;100347.44;5298746;28;20080;-69
2022/04/06 01:13:30;;;;;;;16.50;5.40;;;;;;;9.91;100.00;100352.25;5301980;28;20024;-69
2022/04/06 01:16:01;;;;;;;15.65;5.32;;;;;;;9.89;100.00;100348.16;5305692;28;20480;-69
2022/04/06 01:18:33;;;;;;;16.55;5.60;;;;;;;9.92;100.00;100347.84;5305512;28;20039;-70
2022/04/06 01:21:04;;;;;;;19.25;5.45;;;;;;;9.88;100.00;100347.28;5296821;27;20089;-70
2022/04/06 01:23:35;;;;;;;17.27;4.55;;;;;;;9.88;100.00;100339.44;5302366;28;20468;-70
2022/04/06 01:26:08;;;;;;;23.50;6.05;;;;;;;9.88;100.00;100343.84;5303780;28;20489;-69
2022/04/06 01:28:41;;;;;;;14.88;5.35;;;;;;;9.90;100.00;100344.56;5301621;28;20026;-69
2022/04/06 01:31:12;;;;;;;13.65;5.18;;;;;;;9.89;100.00;100351.59;5299151;28;20037;-70
2022/04/06 01:33:44;;;;;;;22.05;5.95;;;;;;;9.81;100.00;100341.00;5304452;28;20439;-70
2022/04/06 01:36:15;;;;;;;14.95;5.43;;;;;;;9.84;100.00;100343.31;5304812;28;20050;-69
2022/04/06 01:38:46;;;;;;;18.65;6.20;;;;;;;9.86;100.00;100344.00;5304870;28;20012;-69
2022/04/06 01:41:18;;;;;;;15.50;5.30;;;;;;;9.85;100.00;100338.88;5299077;28;20065;-70
2022/04/06 01:43:49;;;;;;;11.68;4.15;;;;;;;9.83;100.00;100336.44;5304299;28;20050;-69
2022/04/06 01:46:20;;;;;;;18.67;5.18;;;;;;;9.85;100.00;100342.38;5302229;28;20032;-69
2022/04/06 01:54:31;;;;;;;18.95;4.93;;;;;;;9.83;100.00;100331.19;5302320;28;20563;-70
2022/04/06 01:57:03;;;;;;;13.20;4.80;;;;;;;9.84;100.00;100330.22;5303515;28;20031;-70
2022/04/06 01:59:34;;;;;;;16.98;4.68;;;;;;;9.82;100.00;100339.19;5303960;28;20031;-69
2022/04/06 02:02:05;;;;;;;21.92;4.88;;;;;;;9.80;100.00;100328.03;5298161;28;20028;-70
2022/04/06 02:04:38;;;;;;;16.15;4.57;;;;;;;9.80;100.00;100331.47;5301098;28;20016;-69
2022/04/06 02:07:13;;;;;;;14.23;4.40;;;;;;;9.81;100.00;100335.75;5303834;28;20081;-69
2022/04/06 02:09:45;;;;;;;18.95;4.70;;;;;;;9.78;100.00;100329.97;5302559;28;20427;-69
2022/04/06 02:12:17;;;;;;;18.10;4.43;;;;;;;9.79;100.00;100326.38;5301645;28;20023;-70
2022/04/06 02:14:48;;;;;;;14.30;3.90;;;;;;;9.78;100.00;100322.94;5302613;28;20034;-69
2022/04/06 02:17:20;;;;;;;16.17;4.18;;;;;;;9.74;100.00;100322.38;5302189;27;20024;-70
2022/04/06 02:19:51;;;;;;;17.58;4.53;;;;;;;9.72;100.00;100320.88;5298170;28;20436;-69
2022/04/06 02:22:22;;;;;;;13.30;3.72;;;;;;;9.73;100.00;100314.66;5303018;28;20463;-69
2022/04/06 02:24:54;;;;;;;14.10;4.45;;;;;;;9.71;100.00;100311.38;5304182;28;20047;-69
2022/04/06 02:27:25;;;;;;;15.63;3.72;;;;;;;9.72;100.00;100311.22;5303931;28;20055;-69
2022/04/06 02:29:56;;;;;;;16.35;4.40;;;;;;;9.67;100.00;100312.63;5301308;28;20396;-69
2022/04/06 02:32:28;;;;;;;13.65;3.75;;;;;;;9.69;100.00;100308.06;5305086;28;20041;-69
2022/04/06 02:34:59;;;;;;;12.35;3.20;;;;;;;9.67;100.00;100304.78;5303756;28;20020;-70
2022/04/06 02:37:30;;;;;;;11.82;3.67;;;;;;;9.69;100.00;100313.28;5299709;28;20266;-69
2022/04/06 02:40:04;;;;;;;13.20;3.75;;;;;;;9.68;100.00;100303.78;5300034;28;20047;-69
2022/04/06 02:42:35;;;;;;;17.83;4.53;;;;;;;9.63;100.00;100309.44;5300932;28;20035;-69
2022/04/06 02:45:07;;;;;;;12.73;4.15;;;;;;;9.63;100.00;100304.22;5304401;28;20473;-70
2022/04/06 02:47:38;;;;;;;12.00;3.90;;;;;;;9.60;100.00;100301.88;5299101;28;20504;-70
2022/04/06 02:50:10;;;;;;;9.25;3.20;;;;;;;9.59;100.00;100300.22;5302872;28;20046;-69
2022/04/06 02:52:41;;;;;;;13.73;3.90;;;;;;;9.57;100.00;100296.91;5299700;28;20024;-70
2022/04/06 02:55:13;;;;;;;10.15;3.80;;;;;;;9.52;100.00;100286.03;5297972;28;20024;-69
2022/04/06 02:57:44;;;;;;;13.68;3.88;;;;;;;9.50;100.00;100290.56;5300305;28;20568;-69
2022/04/06 03:00:16;;;;;;;15.48;3.88;;;;;;;9.49;100.00;100292.34;5298334;28;20023;-69
2022/04/06 03:02:47;;;;;;;13.38;3.63;;;;;;;9.49;100.00;100286.31;5301748;28;20451;-69
2022/04/06 03:05:19;;;;;;;13.75;3.40;;;;;;;9.39;100.00;100275.81;5301786;28;20400;-69
2022/04/06 03:07:51;;;;;;;14.00;3.45;;;;;;;9.46;100.00;100284.78;5299768;28;20065;-70
2022/04/06 03:10:22;;;;;;;17.77;3.88;;;;;;;9.41;100.00;100273.91;5298656;28;20039;-69
2022/04/06 03:12:53;;;;;;;14.95;3.53;;;;;;;9.45;100.00;100283.13;5302461;28;20059;-69
2022/04/06 03:15:25;;;;;;;12.75;3.42;;;;;;;9.42;100.00;100270.34;5300798;28;20043;-69
2022/04/06 03:17:56;;;;;;;11.70;3.10;;;;;;;9.45;100.00;100272.69;5300152;28;20023;-69
2022/04/06 03:20:27;;;;;;;17.02;4.57;;;;;;;9.43;100.00;100266.78;5299174;28;20061;-70
2022/04/06 03:22:59;;;;;;;11.07;2.90;;;;;;;9.45;100.00;100267.44;5299794;28;20026;-69
2022/04/06 03:25:30;;;;;;;11.20;3.30;;;;;;;9.43;100.00;100264.16;5300305;28;20027;-69
2022/04/06 03:28:01;;;;;;;10.85;3.03;;;;;;;9.45;100.00;100257.00;5302010;28;20028;-69
2022/04/06 03:30:33;;;;;;;13.30;3.53;;;;;;;9.43;100.00;100264.16;5301079;28;20487;-69
2022/04/06 03:33:06;;;;;;;14.07;2.95;;;;;;;9.42;100.00;100251.22;5302165;28;20031;-70
2022/04/06 03:35:37;;;;;;;10.57;2.83;;;;;;;9.40;100.00;100248.75;5299297;27;20354;-69
2022/04/06 03:38:08;;;;;;;11.23;2.80;;;;;;;9.38;100.00;100242.81;5300473;28;20016;-69
2022/04/06 03:40:40;;;;;;;9.88;3.45;;;;;;;9.39;100.00;100246.25;5297422;28;20020;-69
2022/04/06 03:43:11;;;;;;;13.40;3.63;;;;;;;9.38;100.00;100247.22;5301771;28;20284;-69
2022/04/06 03:45:42;;;;;;;9.40;2.83;;;;;;;9.37;100.00;100229.88;5301541;28;20020;-69
2022/04/06 03:48:14;;;;;;;11.95;3.05;;;;;;;9.34;100.00;100230.16;5296235;28;20027;-69
2022/04/06 03:50:45;;;;;;;12.23;3.03;;;;;;;9.33;100.00;100234.56;5301536;28;20054;-70
2022/04/06 03:53:17;;;;;;;9.60;2.80;;;;;;;9.36;100.00;100236.91;5300755;28;20546;-70
2022/04/06 03:55:48;;;;;;;10.07;2.70;;;;;;;9.34;100.00;100238.81;5301742;28;20030;-70
2022/04/06 03:58:19;;;;;;;13.57;3.55;;;;;;;9.36;100.00;100236.91;5301729;28;20429;-70
2022/04/06 04:00:51;;;;;;;9.07;2.30;;;;;;;9.34;100.00;100238.00;5302343;28;20374;-70
2022/04/06 04:03:22;;;;;;;8.93;2.50;;;;;;;9.35;100.00;100231.81;5301276;28;20058;-70
2022/04/06 04:05:53;;;;;;;11.02;3.35;;;;;;;9.33;100.00;100231.94;5298240;28;20515;-70
2022/04/06 04:08:26;;;;;;;9.88;2.60;;;;;;;9.33;100.00;100228.50;5299875;28;20024;-70
2022/04/06 04:10:57;;;;;;;12.68;2.83;;;;;;;9.34;100.00;100230.97;5298434;28;20096;-70
2022/04/06 04:13:29;;;;;;;8.73;2.42;;;;;;;9.33;100.00;100231.13;5301141;28;20036;-70
2022/04/06 04:16:01;;;;;;;11.43;2.97;;;;;;;9.36;100.00;100228.25;5301495;28;20361;-70
2022/04/06 04:18:32;;;;;;;8.88;2.42;;;;;;;9.38;100.00;100228.91;5298329;28;20039;-70
2022/04/06 04:23:53;;;;;;;10.77;2.88;;;;;;;9.24;100.00;100215.31;5301892;28;20044;-70
2022/04/06 04:26:24;;;;;;;15.15;4.00;;;;;;;9.32;100.00;100217.25;5302273;28;20023;-70
2022/04/06 04:28:56;;;;;;;13.23;3.78;;;;;;;9.36;100.00;100221.22;5296740;28;20020;-70
2022/04/06 04:31:27;;;;;;;12.68;3.08;;;;;;;9.38;100.00;100221.06;5302373;28;20519;-70
2022/04/06 04:33:58;;;;;;;11.52;3.17;;;;;;;9.40;100.00;100225.22;5301989;28;20115;-70
2022/04/06 04:36:30;;;;;;;14.60;3.70;;;;;;;9.36;100.00;100209.94;5301277;28;20032;-70
2022/04/06 04:39:02;;;;;;;13.88;4.75;;;;;;;9.42;100.00;100219.84;5296793;28;20081;-70
2022/04/06 04:41:34;;;;;;;16.75;4.63;;;;;;;9.41;100.00;100218.19;5301857;28;20020;-70
2022/04/06 04:44:05;;;;;;;9.95;3.28;;;;;;;9.40;100.00;100219.16;5299052;28;20092;-70
2022/04/06 04:46:37;;;;;;;16.38;4.65;;;;;;;9.42;100.00;100210.19;5300267;28;20024;-70
2022/04/06 04:49:08;;;;;;;13.73;4.95;;;;;;;9.44;100.00;100212.69;5301570;28;20027;-70
2022/04/06 04:51:40;;;;;;;16.88;5.22;;;;;;;9.40;100.00;100201.69;5299699;28;20030;-70
2022/04/06 04:54:11;;;;;;;15.60;5.18;;;;;;;9.47;100.00;100199.31;5299577;28;20035;-70
2022/04/06 04:56:43;;;;;;;13.00;4.97;;;;;;;9.48;100.00;100199.19;5301786;28;20024;-70
2022/04/06 04:59:14;;;;;;;18.38;5.13;;;;;;;9.47;100.00;100200.16;5298965;28;20055;-70
2022/04/06 05:01:46;;;;;;;16.77;4.70;;;;;;;9.48;100.00;100201.00;5299481;28;20138;-70
2022/04/06 05:04:17;;;;;;;18.17;5.55;;;;;;;9.50;100.00;100189.41;5299611;28;20043;-70
2022/04/06 05:06:48;;;;;;;13.00;4.90;;;;;;;9.48;100.00;100199.19;5296556;28;20424;-70
2022/04/06 05:09:19;;;;;;;19.33;5.53;;;;;;;9.47;100.00;100201.94;5296909;28;20031;-70
2022/04/06 05:11:51;;;;;;;15.68;4.68;;;;;;;9.45;100.00;100191.63;5299735;28;20023;-70
2022/04/06 05:14:23;;;;;;;14.73;4.95;;;;;;;9.45;100.00;100191.63;5296047;28;20055;-69
2022/04/06 05:16:55;;;;;;;17.50;5.50;;;;;;;9.45;100.00;100194.25;5300732;28;20028;-69
2022/04/06 05:19:26;;;;;;;15.73;5.22;;;;;;;9.41;100.00;100181.59;5299414;28;20144;-70
2022/04/06 05:21:59;;;;;;;10.90;4.20;;;;;;;9.47;100.00;100184.47;5296018;28;20024;-70
2022/04/06 05:24:30;;;;;;;19.27;5.47;;;;;;;9.47;100.00;100192.31;5296745;28;20107;-70
2022/04/06 05:27:03;;;;;;;20.33;5.05;;;;;;;9.49;100.00;100184.34;5299634;28;20030;-70
2022/04/06 05:29:34;;;;;;;;;;;;;;;9.86;100.00;100180.97;5297719;28;20478;-69
2022/04/06 05:32:06;;;;;;;14.73;4.07;;;;;;;9.52;100.00;100193.69;5298969;28;19915;-70
2022/04/06 05:34:37;;;;;;;11.80;3.92;;;;;;;9.53;100.00;100187.50;5295111;28;20028;-69
2022/04/06 05:37:09;;;;;;;12.70;4.28;;;;;;;9.47;100.00;100184.47;5301288;28;20032;-70
2022/04/06 05:39:40;;;;;;;12.85;3.88;;;;;;;9.52;100.00;100188.47;5294477;28;20320;-69
2022/04/06 05:42:11;;;;;;;11.05;3.47;;;;;;;9.50;100.00;100183.34;5296502;28;20246;-70
2022/04/06 05:44:43;;;;;;;14.35;4.13;;;;;;;9.51;100.00;100187.66;5300531;28;20107;-69
2022/04/06 05:47:14;;;;;;;12.15;4.03;;;;;;;9.56;100.00;100184.59;5293412;28;20168;-70
2022/04/06 05:49:45;;;;;;;18.77;3.78;;;;;;;9.53;100.00;100171.81;5297708;28;20016;-70
2022/04/06 05:52:17;;;;;;;13.38;3.55;;;;;;;9.55;100.00;100178.56;5299243;28;20032;-70
2022/04/06 05:54:48;;;;;;;12.15;2.67;;;;;;;9.53;100.00;100174.41;5300086;28;20031;-70
2022/04/06 05:57:20;;;;;;;11.68;2.80;;;;;;;9.58;100.00;100177.44;5300245;28;20047;-70
2022/04/06 05:59:51;;;;;;;12.55;3.13;;;;;;;9.56;100.00;100174.16;5300793;28;20023;-70
2022/04/06 06:02:25;;;;;;;17.17;3.70;;;;;;;9.57;100.00;100173.19;5298349;28;20028;-70
2022/04/06 06:04:56;;;;;;;13.98;2.85;;;;;;;9.56;100.00;100167.13;5300763;28;20075;-70
2022/04/06 06:07:28;;;;;;;8.75;2.35;;;;;;;9.58;100.00;100177.44;5298623;28;20123;-69
2022/04/06 06:10:00;;;;;;;10.25;2.70;;;;;;;9.62;100.00;100174.41;5301012;28;20044;-69
2022/04/06 06:12:31;;;;;;;10.27;1.98;;;;;;;9.63;100.00;100183.91;5302065;28;20026;-70
2022/04/06 06:15:06;;;;;;;11.15;2.15;;;;;;;9.67;100.00;100193.13;5303987;28;20363;-69
2022/04/06 06:17:38;;;;;;;7.10;2.42;;;;;;;9.63;100.00;100186.53;5298359;28;20035;-70
2022/04/06 06:20:10;;;;;;;7.43;2.00;;;;;;;9.68;100.00;100184.31;5303805;28;20564;-69
2022/04/06 06:22:41;;;;;;;8.02;2.20;;;;;;;9.69;100.00;100190.34;5295082;28;20030;-70
2022/04/06 06:25:13;;;;;;;9.75;2.15;;;;;;;9.73;100.00;100191.72;5297262;28;20047;-70
2022/04/06 06:27:46;;;;;;;7.15;1.85;;;;;;;9.73;100.00;100182.06;5301205;28;20473;-70
2022/04/06 06:30:17;;;;;;;6.38;1.52;;;;;;;9.80;100.00;100182.34;5301571;28;20058;-69
2022/04/06 06:32:48;;;;;;;5.55;1.25;;;;;;;9.80;100.00;100181.53;5301980;28;20710;-70
2022/04/06 06:35:21;;;;;;;7.30;1.85;;;;;;;9.86;100.00;100176.56;5302163;28;20029;-70
2022/04/06 06:37:55;;;;;;;6.53;1.57;;;;;;;9.85;100.00;100187.16;5301772;28;20028;-70
2022/04/06 06:40:28;;;;;;;5.28;1.20;;;;;;;9.86;100.00;100183.59;5284518;28;20035;-70
2022/04/06 06:42:59;;;;;;;9.48;1.40;;;;;;;9.90;100.00;100183.16;5292688;28;20081;-70
2022/04/06 06:45:30;;;;;;;5.65;1.42;;;;;;;9.88;100.00;100172.00;5294975;28;20059;-70
2022/04/06 06:48:03;;;;;;;8.02;1.58;;;;;;;9.90;100.00;100164.03;5287888;28;20032;-70
2022/04/06 06:50:34;;;;;;;5.55;1.55;;;;;;;9.94;100.00;100170.63;5287408;28;20024;-70
2022/04/06 06:53:06;;;;;;;11.20;2.10;;;;;;;9.97;100.00;100172.97;5289524;28;20554;-70
2022/04/06 06:55:37;;;;;;;7.50;1.63;;;;;;;9.99;100.00;100163.97;5294108;28;20031;-70
2022/04/06 06:58:08;;;;;;;5.22;1.20;;;;;;;10.02;100.00;100167.28;5301601;28;20032;-70
2022/04/06 07:00:40;;;;;;;7.15;1.45;;;;;;;10.05;100.00;100159.97;5298863;28;20016;-69
2022/04/06 07:03:11;;;;;;;5.70;1.70;;;;;;;10.08;100.00;100167.53;5300436;28;20035;-70
2022/04/06 07:05:42;;;;;;;5.70;1.52;;;;;;;10.08;100.00;100170.16;5298386;28;20077;-70
2022/04/06 07:08:14;;;;;;;8.65;1.73;;;;;;;10.11;100.00;100166.41;5295675;28;20034;-69
2022/04/06 07:10:47;;;;;;;6.70;1.30;;;;;;;10.11;100.00;100169.84;5297003;28;20027;-70
2022/04/06 07:13:18;;;;;;;9.05;1.75;;;;;;;10.10;100.00;100170.81;5301030;28;20024;-70
2022/04/06 07:15:49;;;;;;;10.32;1.98;;;;;;;10.08;100.00;100169.34;5300734;28;20034;-70
2022/04/06 07:18:21;;;;;;;5.32;2.05;;;;;;;10.06;100.00;100166.84;5302815;28;20032;-70
2022/04/06 07:20:53;;;;;;;12.57;2.97;;;;;;;9.98;100.00;100164.94;5301251;28;20181;-70
2022/04/06 07:23:24;;;;;;;9.48;2.10;;;;;;;9.96;100.00;100161.66;5299450;28;20138;-70
2022/04/06 07:25:55;;;;;;;6.40;2.50;;;;;;;9.93;100.00;100158.50;5299619;28;20081;-70
2022/04/06 07:28:27;;;;;;;9.48;2.60;;;;;;;9.97;100.00;100152.03;5300201;28;20321;-69
2022/04/06 07:30:59;;;;;;;10.43;2.78;;;;;;;10.02;100.00;100155.03;5300502;28;20024;-69
2022/04/06 07:33:30;;;;;;;7.88;2.53;;;;;;;10.00;100.00;100149.13;5298962;28;20032;-69
2022/04/06 07:36:03;;;;;;;11.07;2.90;;;;;;;9.98;100.00;100149.25;5300866;28;20031;-69
2022/04/06 07:38:35;;;;;;;9.02;3.00;;;;;;;10.02;100.00;100143.72;5300144;28;20012;-69
2022/04/06 07:41:06;;;;;;;11.90;2.75;;;;;;;9.97;100.00;100141.56;5299976;28;20028;-70
2022/04/06 07:43:38;;;;;;;8.13;2.97;;;;;;;10.02;100.00;100141.94;5299725;28;20093;-69
2022/04/06 07:46:09;;;;;;;9.82;2.72;;;;;;;10.05;100.00;100132.97;5297460;28;20035;-70
2022/04/06 07:48:41;;;;;;;10.48;2.80;;;;;;;10.06;100.00;100132.81;5287653;28;20023;-69
2022/04/06 07:51:12;;;;;;;8.32;2.53;;;;;;;10.11;100.00;100124.53;5294244;28;20051;-69
2022/04/06 07:53:43;;;;;;;12.43;3.15;;;;;;;10.18;100.00;100113.34;5295275;28;20080;-70
2022/04/06 07:56:15;;;;;;;7.60;2.92;;;;;;;10.35;100.00;100117.03;5295023;28;20028;-70
2022/04/06 07:58:46;;;;;;;6.85;2.50;;;;;;;10.41;100.00;100110.34;5294745;28;20511;-70
2022/04/06 08:01:17;;;;;;;10.90;3.03;;;;;;;10.43;100.00;100118.91;5289193;28;20908;-69
2022/04/06 08:03:49;;;;;;;9.05;2.90;;;;;;;10.44;100.00;100115.31;5301823;28;20458;-70
2022/04/06 08:06:22;;;;;;;10.93;3.67;;;;;;;10.52;100.00;100114.56;5299302;28;20232;-70
2022/04/06 08:08:54;;;;;;;11.98;2.90;;;;;;;10.56;100.00;100101.03;5298024;28;20469;-69
2022/04/06 08:11:26;;;;;;;11.18;2.45;;;;;;;10.61;100.00;100117.16;5304638;28;20045;-70
2022/04/06 08:13:57;;;;;;;13.95;2.60;;;;;;;10.54;100.00;100110.03;5299944;28;20105;-70
2022/04/06 08:16:28;;;;;;;8.93;2.78;;;;;;;10.47;100.00;100117.63;5297476;28;20038;-70
2022/04/06 08:18:59;;;;;;;11.65;2.35;;;;;;;10.46;100.00;100111.59;5297354;28;20322;-69
2022/04/06 08:21:31;;;;;;;9.63;2.78;;;;;;;10.41;100.00;100112.97;5297308;28;20063;-69
2022/04/06 08:24:02;;;;;;;9.95;2.65;;;;;;;10.47;100.00;100115.84;5299291;28;20096;-70
2022/04/06 08:26:34;;;;;;;10.18;3.08;;;;;;;10.45;100.00;100115.19;5291550;28;20020;-70
2022/04/06 08:29:05;;;;;;;9.27;2.72;;;;;;;10.35;100.00;100114.41;5297785;28;20107;-69
2022/04/06 08:31:37;;;;;;;8.45;2.63;;;;;;;10.37;100.00;100114.25;5292209;28;20465;-70
2022/04/06 08:34:08;;;;;;;7.90;1.95;;;;;;;10.38;100.00;100121.97;5290311;28;20084;-70
2022/04/06 08:36:40;;;;;;;10.88;2.17;;;;;;;10.33;100.00;100118.94;5284053;28;20077;-70
2022/04/06 08:39:11;;;;;;;10.88;2.58;;;;;;;10.35;100.00;100117.03;5294221;28;20846;-70
2022/04/06 08:41:43;;;;;;;8.02;2.40;;;;;;;10.36;100.00;100121.28;5295332;28;20477;-70
2022/04/06 08:44:16;;;;;;;9.75;2.42;;;;;;;10.43;100.00;100124.16;5290864;28;20028;-70
2022/04/06 08:46:50;;;;;;;7.95;2.47;;;;;;;10.44;100.00;100116.13;5292672;28;20024;-70
2022/04/06 08:49:23;;;;;;;10.07;2.45;;;;;;;10.48;100.00;100114.88;5298093;28;20310;-69
2022/04/06 08:51:55;;;;;;;9.80;2.10;;;;;;;10.54;100.00;100104.78;5299678;28;20027;-70
2022/04/06 08:54:27;;;;;;;10.65;2.38;;;;;;;10.62;100.00;100103.06;5297475;28;20114;-69
2022/04/06 08:56:59;;;;;;;10.38;2.45;;;;;;;10.64;100.00;100101.09;5294439;28;20038;-69
2022/04/06 08:59:30;;;;;;;10.77;2.30;;;;;;;10.54;100.00;100084.66;5297072;28;20117;-70
2022/04/06 09:02:01;;;;;;;8.60;2.42;;;;;;;10.66;100.00;100098.34;5298315;28;20035;-70
2022/04/06 09:04:35;;;;;;;9.77;2.45;;;;;;;10.62;100.00;100105.69;5295645;28;20393;-70
2022/04/06 09:07:07;;;;;;;;;;;;;;;10.99;100.00;100107.34;5298087;28;20270;-71
2022/04/06 09:09:39;;;;;;;10.07;2.67;;;;;;;10.70;100.00;100103.16;5298660;28;19916;-70
2022/04/06 09:12:15;;;;;;;6.25;2.17;;;;;;;10.65;100.00;100107.19;5294868;28;20031;-70
2022/04/06 09:14:47;;;;;;;9.23;2.55;;;;;;;10.73;100.00;100101.22;5288151;28;20050;-70
2022/04/06 09:17:22;;;;;;;10.77;2.55;;;;;;;10.78;100.00;100102.41;5291553;28;20030;-70
2022/04/06 09:19:57;;;;;;;9.00;2.97;;;;;;;10.75;100.00;100115.78;5292682;28;20048;-70
2022/04/06 09:22:29;;;;;;;8.35;2.85;;;;;;;10.76;100.00;100109.59;5294942;28;20036;-70
2022/04/06 09:25:02;;;;;;;6.40;2.13;;;;;;;10.69;100.00;100105.94;5299423;28;20039;-70
2022/04/06 09:27:33;;;;;;;11.17;2.77;;;;;;;10.77;100.00;100103.38;5297264;28;20020;-70
2022/04/06 09:30:06;;;;;;;11.93;2.60;;;;;;;10.77;100.00;100102.56;5296054;28;20780;-70
2022/04/06 09:32:40;;;;;;;9.20;3.37;;;;;;;10.79;100.00;100098.78;5299404;28;20026;-70
2022/04/06 09:35:28;;;;;;;8.85;2.40;;;;;;;10.90;100.00;100103.00;5300810;28;20028;-70
2022/04/06 09:38:10;;;;;;;11.95;2.65;;;;;;;10.78;100.00;100086.69;5295778;28;20093;-70
2022/04/06 09:40:43;;;;;;;13.38;2.50;;;;;;;10.70;100.00;100099.69;5296821;28;20131;-70
2022/04/06 09:43:28;;;;;;;6.97;2.35;;;;;;;10.92;100.00;100109.75;5306023;28;20038;-70
2022/04/06 09:49:21;;;;;;;6.90;2.35;;;;;;;10.80;100.00;100103.09;5298939;28;20384;-70
2022/04/06 09:51:52;;;;;;;9.25;2.60;;;;;;;10.77;100.00;100098.13;5297097;28;20038;-70
2022/04/06 09:54:26;;;;;;;8.02;2.83;;;;;;;10.81;100.00;100096.88;5301191;28;20532;-70
2022/04/06 09:56:58;;;;;;;9.43;2.40;;;;;;;10.81;100.00;100093.41;5299394;28;20034;-70
2022/04/06 09:59:32;;;;;;;6.07;1.90;;;;;;;10.81;100.00;100094.25;5294614;28;20052;-69
2022/04/06 10:02:10;;;;;;;9.38;2.20;;;;;;;10.87;100.00;100093.66;5292848;28;20023;-70
2022/04/06 10:04:43;;;;;;;11.57;2.40;;;;;;;10.85;100.00;100086.91;5296526;28;20135;-70
2022/04/06 10:07:15;;;;;;;6.97;2.17;;;;;;;10.89;100.00;100083.81;5302489;28;20019;-70
2022/04/06 10:09:47;;;;;;;5.32;2.35;;;;;;;10.83;100.00;100078.34;5301759;28;20030;-70
2022/04/06 10:12:18;;;;;;;10.43;2.55;;;;;;;10.84;100.00;100077.41;5299566;28;20024;-70
2022/04/06 10:14:50;;;;;;;11.05;2.50;;;;;;;10.89;100.00;100072.53;5304966;28;20476;-69
2022/04/06 10:17:23;;;;;;;9.20;2.47;;;;;;;10.92;100.00;100078.28;5299830;28;20411;-70
2022/04/06 10:20:09;;;;;;;6.10;2.10;;;;;;;10.95;100.00;100072.75;5300131;28;20131;-70
2022/04/06 10:23:06;;;;;;;9.02;2.53;;;;;;;10.88;100.00;100079.56;5294451;28;20480;-70
2022/04/06 10:26:00;;;;;;;8.75;2.22;;;;;;;10.83;100.00;100081.78;5296486;28;20039;-70
2022/04/06 10:28:33;;;;;;;9.23;2.55;;;;;;;10.64;100.00;100076.72;5298189;28;21139;-69
2022/04/06 10:31:19;;;;;;;8.88;1.98;;;;;;;10.85;100.00;100071.19;5288260;28;20023;-69
2022/04/06 10:34:13;;;;;;;9.60;2.88;;;;;;;10.73;100.00;100075.84;5295387;28;20354;-69
2022/04/06 10:37:07;;;;;;;9.68;2.67;;;;;;;10.88;100.00;100076.13;5297212;28;20024;-70
2022/04/06 10:39:50;;;;;;;9.75;2.53;;;;;;;10.89;100.00;100073.34;5297766;28;20401;-70
2022/04/06 10:42:27;;;;;;;8.40;2.85;;;;;;;10.85;100.00;100072.00;5300366;28;20070;-69
2022/04/06 10:44:59;;;;;;;9.50;2.50;;;;;;;10.83;100.00;100071.31;5300126;28;20024;-70
2022/04/06 10:47:32;;;;;;;7.20;2.50;;;;;;;10.87;100.00;100063.97;5295970;28;20421;-69
2022/04/06 10:50:15;;;;;;;8.30;2.40;;;;;;;10.93;100.00;100066.81;5302436;28;20054;-69
2022/04/06 10:52:47;;;;;;;7.57;2.15;;;;;;;10.79;100.00;100058.66;5298142;28;20028;-69
2022/04/06 10:55:23;;;;;;;6.72;2.40;;;;;;;10.85;100.00;100058.09;5297929;28;20610;-70
2022/04/06 10:58:00;;;;;;;7.28;2.60;;;;;;;10.88;100.00;100058.59;5291918;28;20061;-69
2022/04/06 11:00:34;;;;;;;6.13;2.28;;;;;;;10.96;100.00;100048.19;5299907;28;20109;-69
2022/04/06 11:03:15;;;;;;;;;;;;;;;11.35;100.00;100041.72;5302016;28;20559;-69
2022/04/06 11:05:49;;;;;;;6.90;2.15;;;;;;;10.92;100.00;100036.34;5291498;28;19920;-69
2022/04/06 11:11:46;;;;;;;5.85;2.08;;;;;;;11.02;100.00;100043.28;5301296;28;20024;-69
2022/04/06 11:14:24;;;;;;;8.18;2.10;;;;;;;11.09;100.00;100046.94;5282561;28;20066;-70
2022/04/06 11:16:55;;;;;;;7.80;2.10;;;;;;;11.02;100.00;100031.00;5295413;28;20023;-69
2022/04/06 11:19:28;;;;;;;8.30;2.35;;;;;;;11.03;100.00;100031.84;5296054;28;20055;-69
2022/04/06 11:21:59;;;;;;;9.60;2.42;;;;;;;11.05;100.00;100024.66;5295027;28;20123;-69
2022/04/06 11:24:31;;;;;;;5.65;2.80;;;;;;;11.08;100.00;100025.16;5295512;27;20023;-70
2022/04/06 11:27:02;;;;;;;6.53;2.13;;;;;;;11.15;100.00;100030.63;5296097;28;20023;-69
2022/04/06 11:29:36;;;;;;;6.60;2.28;;;;;;;11.20;100.00;100016.06;5297145;28;20033;-70
2022/04/06 11:32:07;;;;;;;4.43;1.95;;;;;;;11.22;100.00;100015.09;5286230;28;20472;-69
2022/04/06 11:34:40;;;;;;;6.50;2.20;;;;;;;11.27;100.00;100021.53;5288605;28;20039;-69
2022/04/06 11:37:11;;;;;;;6.22;2.20;;;;;;;11.26;100.00;100025.13;5293612;28;20031;-69
2022/04/06 11:39:43;;;;;;;6.53;1.80;;;;;;;11.28;100.00;100019.72;5298272;28;20365;-69
2022/04/06 11:42:17;;;;;;;5.22;1.80;;;;;;;11.31;100.00;100017.59;5295132;28;20039;-69
2022/04/06 11:44:48;;;;;;;6.15;1.98;;;;;;;11.33;100.00;100005.19;5299185;28;20041;-69
2022/04/06 11:47:27;;;;;;;7.05;2.15;;;;;;;11.38;100.00;100007.31;5297286;28;20027;-69
2022/04/06 11:49:59;;;;;;;5.78;2.03;;;;;;;11.29;100.00;100009.09;5301161;28;20081;-70
2022/04/06 11:52:32;;;;;;;6.27;2.30;;;;;;;11.30;100.00;100002.88;5298071;28;20107;-69
2022/04/06 11:55:03;;;;;;;5.38;2.60;;;;;;;11.25;100.00;99997.28;5295068;28;20032;-69
2022/04/06 11:57:37;;;;;;;4.97;2.10;;;;;;;11.31;100.00;99998.44;5300151;28;20113;-69